createdAt,value
2018-12-27T00:00:20.257Z,16.00
2018-12-27T00:01:20.246Z,16.00
2018-12-27T00:02:20.266Z,16.00
2018-12-27T00:03:20.222Z,16.00
2018-12-27T00:04:20.304Z,16.00
2018-12-27T00:05:20.615Z,16.00
2018-12-27T00:06:20.192Z,16.00
2018-12-27T00:07:20.272Z,16.00
2018-12-27T00:08:20.171Z,16.00
2018-12-27T00:09:20.164Z,16.00
2018-12-27T00:10:20.153Z,16.00
2018-12-27T00:11:20.287Z,16.00
2018-12-27T00:12:20.517Z,16.00
2018-12-27T00:13:20.122Z,16.00
2018-12-27T00:14:20.111Z,16.00
2018-12-27T00:15:20.102Z,16.00
2018-12-27T00:16:20.093Z,16.00
2018-12-27T00:17:20.141Z,16.00
2018-12-27T00:18:20.592Z,16.00
2018-12-27T00:19:20.528Z,16.00
2018-12-27T00:20:20.089Z,16.00
2018-12-27T00:21:20.597Z,16.00
2018-12-27T00:22:20.027Z,16.00
2018-12-27T00:23:20.056Z,16.00
2018-12-27T00:24:20.021Z,16.00
2018-12-27T00:25:20.575Z,16.00
2018-12-27T00:26:20.278Z,16.00
2018-12-27T00:27:19.974Z,16.00
2018-12-27T00:28:19.964Z,16.00
2018-12-27T00:29:19.994Z,16.00
2018-12-27T00:30:19.948Z,16.00
2018-12-27T00:31:20.591Z,16.00
2018-12-27T00:32:19.924Z,16.00
2018-12-27T00:33:19.926Z,16.00
2018-12-27T00:34:19.908Z,16.00
2018-12-27T00:35:19.946Z,16.00
2018-12-27T00:36:19.882Z,16.00
2018-12-27T00:37:19.875Z,16.00
2018-12-27T00:38:19.862Z,16.00
2018-12-27T00:39:20.338Z,16.00
2018-12-27T00:40:19.841Z,16.00
2018-12-27T00:41:19.912Z,16.00
2018-12-27T00:42:19.820Z,16.00
2018-12-27T00:43:19.810Z,16.00
2018-12-27T00:44:19.799Z,16.00
2018-12-27T00:45:19.791Z,16.00
2018-12-27T00:46:19.779Z,16.00
2018-12-27T00:47:19.808Z,16.00
2018-12-27T00:48:19.759Z,16.00
2018-12-27T00:49:19.751Z,16.00
2018-12-27T00:50:19.738Z,16.00
2018-12-27T00:51:19.737Z,16.00
2018-12-27T00:52:22.183Z,16.00
2018-12-27T00:53:19.942Z,16.00
2018-12-27T00:54:19.701Z,16.00
2018-12-27T00:55:19.693Z,16.00
2018-12-27T00:56:19.682Z,16.00
2018-12-27T00:57:19.673Z,16.00
2018-12-27T00:58:19.659Z,16.00
2018-12-27T00:59:19.695Z,16.00
2018-12-27T01:00:19.635Z,16.00
2018-12-27T01:01:19.641Z,16.00
2018-12-27T01:02:19.620Z,16.00
2018-12-27T01:03:19.615Z,16.00
2018-12-27T01:04:20.549Z,16.00
2018-12-27T01:05:19.630Z,16.00
2018-12-27T01:06:19.577Z,16.00
2018-12-27T01:07:19.567Z,16.00
2018-12-27T01:08:19.563Z,16.00
2018-12-27T01:09:19.541Z,16.00
2018-12-27T01:10:19.533Z,16.00
2018-12-27T01:11:19.589Z,16.00
2018-12-27T01:12:19.516Z,16.00
2018-12-27T01:13:19.501Z,16.00
2018-12-27T01:14:19.494Z,16.00
2018-12-27T01:15:19.479Z,16.00
2018-12-27T01:16:19.782Z,16.00
2018-12-27T01:17:19.505Z,16.00
2018-12-27T01:18:19.456Z,16.00
2018-12-27T01:19:19.442Z,16.00
2018-12-27T01:20:19.428Z,16.00
2018-12-27T01:21:19.419Z,16.00
2018-12-27T01:22:19.419Z,16.00
2018-12-27T01:23:19.722Z,16.00
2018-12-27T01:24:19.386Z,16.00
2018-12-27T01:25:19.378Z,16.00
2018-12-27T01:26:19.367Z,16.00
2018-12-27T01:27:19.364Z,16.00
2018-12-27T01:28:19.350Z,16.00
2018-12-27T01:29:19.406Z,16.00
2018-12-27T01:30:19.633Z,16.00
2018-12-27T01:31:19.317Z,16.00
2018-12-27T01:32:19.306Z,16.00
2018-12-27T01:33:19.296Z,16.00
2018-12-27T01:34:19.284Z,16.00
2018-12-27T01:35:19.410Z,16.00
2018-12-27T01:36:19.263Z,16.00
2018-12-27T01:37:19.544Z,16.00
2018-12-27T01:38:19.245Z,16.00
2018-12-27T01:39:19.232Z,16.00
2018-12-27T01:40:19.278Z,16.00
2018-12-27T01:41:19.252Z,16.00
2018-12-27T01:42:19.204Z,16.00
2018-12-27T01:43:19.192Z,16.00
2018-12-27T01:44:19.555Z,16.00
2018-12-27T01:45:19.170Z,16.00
2018-12-27T01:46:19.160Z,16.00
2018-12-27T01:47:19.231Z,16.00
2018-12-27T01:48:19.140Z,16.00
2018-12-27T01:49:19.199Z,16.00
2018-12-27T01:50:19.222Z,16.00
2018-12-27T01:51:19.393Z,16.00
2018-12-27T01:52:19.100Z,16.00
2018-12-27T01:53:19.139Z,16.00
2018-12-27T01:54:19.079Z,16.00
2018-12-27T01:55:19.067Z,16.00
2018-12-27T01:56:19.059Z,16.00
2018-12-27T01:57:19.048Z,16.00
2018-12-27T01:58:19.335Z,16.00
2018-12-27T01:59:19.065Z,16.00
2018-12-27T02:00:19.018Z,16.00
2018-12-27T02:01:19.007Z,16.00
2018-12-27T02:02:19.573Z,16.00
2018-12-27T02:03:26.319Z,16.00
2018-12-27T02:04:20.329Z,16.00
2018-12-27T02:05:19.253Z,16.00
2018-12-27T02:06:18.954Z,16.00
2018-12-27T02:07:18.943Z,16.00
2018-12-27T02:08:18.933Z,16.00
2018-12-27T02:09:18.924Z,16.00
2018-12-27T02:10:18.956Z,16.00
2018-12-27T02:11:18.903Z,16.00
2018-12-27T02:12:19.173Z,16.00
2018-12-27T02:13:18.883Z,16.00
2018-12-27T02:14:18.875Z,16.00
2018-12-27T02:15:18.864Z,16.00
2018-12-27T02:16:18.888Z,16.00
2018-12-27T02:17:18.842Z,16.00
2018-12-27T02:18:18.832Z,16.00
2018-12-27T02:19:19.126Z,16.00
2018-12-27T02:20:18.810Z,16.00
2018-12-27T02:21:18.800Z,16.00
2018-12-27T02:22:18.848Z,16.00
2018-12-27T02:23:18.779Z,16.00
2018-12-27T02:24:18.772Z,16.00
2018-12-27T02:25:18.759Z,16.00
2018-12-27T02:26:19.046Z,16.00
2018-12-27T02:27:18.740Z,16.00
2018-12-27T02:28:18.770Z,16.00
2018-12-27T02:29:18.717Z,16.00
2018-12-27T02:30:18.709Z,16.00
2018-12-27T02:31:18.698Z,16.00
2018-12-27T02:32:18.706Z,16.00
2018-12-27T02:33:18.967Z,16.00
2018-12-27T02:34:18.708Z,16.00
2018-12-27T02:35:18.658Z,16.00
2018-12-27T02:36:18.647Z,16.00
2018-12-27T02:37:18.636Z,16.00
2018-12-27T02:38:18.628Z,16.00
2018-12-27T02:39:18.615Z,16.00
2018-12-27T02:40:19.690Z,16.00
2018-12-27T02:41:18.960Z,16.00
2018-12-27T02:42:18.583Z,16.00
2018-12-27T02:43:18.578Z,16.00
2018-12-27T02:44:18.564Z,16.00
2018-12-27T02:45:18.553Z,16.00
2018-12-27T02:46:18.581Z,16.00
2018-12-27T02:47:18.531Z,16.00
2018-12-27T02:48:18.523Z,16.00
2018-12-27T02:49:18.511Z,16.00
2018-12-27T02:50:18.501Z,16.00
2018-12-27T02:51:18.491Z,16.00
2018-12-27T02:52:18.521Z,16.00
2018-12-27T02:53:18.755Z,16.00
2018-12-27T02:54:18.465Z,16.00
2018-12-27T02:55:18.451Z,16.00
2018-12-27T02:56:18.439Z,16.00
2018-12-27T02:57:18.432Z,16.00
2018-12-27T02:58:18.718Z,16.00
2018-12-27T02:59:18.408Z,16.00
2018-12-27T03:01:40.358Z,16.00
2018-12-27T03:02:40.228Z,16.00
2018-12-27T03:03:43.946Z,16.00
2018-12-27T03:04:40.230Z,16.00
2018-12-27T03:05:40.196Z,16.00
2018-12-27T03:06:40.186Z,16.00
2018-12-27T03:07:40.584Z,16.00
2018-12-27T03:08:40.171Z,16.00
2018-12-27T03:09:40.154Z,16.00
2018-12-27T03:10:40.144Z,16.00
2018-12-27T03:11:40.133Z,16.00
2018-12-27T03:12:40.811Z,16.00
2018-12-27T03:13:40.983Z,16.00
2018-12-27T03:14:40.419Z,16.00
2018-12-27T03:15:46.808Z,16.00
2018-12-27T03:16:40.078Z,16.00
2018-12-27T03:17:40.067Z,16.00
2018-12-27T03:18:40.059Z,16.00
2018-12-27T03:19:40.149Z,16.00
2018-12-27T03:20:40.034Z,16.00
2018-12-27T03:21:40.385Z,16.00
2018-12-27T03:22:40.819Z,16.00
2018-12-27T03:23:40.003Z,16.00
2018-12-27T03:24:40.811Z,16.00
2018-12-27T03:25:40.055Z,16.00
2018-12-27T03:26:39.971Z,16.00
2018-12-27T03:27:39.960Z,16.00
2018-12-27T03:28:40.253Z,16.00
2018-12-27T03:29:39.941Z,16.00
2018-12-27T03:30:39.933Z,16.00
2018-12-27T03:31:40.033Z,16.00
2018-12-27T03:32:39.911Z,16.00
2018-12-27T03:33:39.899Z,16.00
2018-12-27T03:34:39.888Z,16.00
2018-12-27T03:35:40.168Z,16.00
2018-12-27T03:36:39.867Z,16.00
2018-12-27T03:37:39.944Z,16.00
2018-12-27T03:38:39.847Z,16.00
2018-12-27T03:39:39.837Z,16.00
2018-12-27T03:40:39.824Z,16.00
2018-12-27T03:41:39.819Z,16.00
2018-12-27T03:42:40.103Z,16.00
2018-12-27T03:43:39.860Z,16.00
2018-12-27T03:44:39.790Z,16.00
2018-12-27T03:45:39.771Z,16.00
2018-12-27T03:46:39.761Z,16.00
2018-12-27T03:47:39.755Z,16.00
2018-12-27T03:48:39.740Z,16.00
2018-12-27T03:49:40.081Z,16.00
2018-12-27T03:50:39.720Z,16.00
2018-12-27T03:51:39.707Z,16.00
2018-12-27T03:52:39.699Z,16.00
2018-12-27T03:53:39.683Z,16.00
2018-12-27T03:54:39.678Z,16.00
2018-12-27T03:55:39.946Z,16.00
2018-12-27T03:56:39.956Z,16.00
2018-12-27T03:57:39.642Z,16.00
2018-12-27T03:58:39.630Z,16.00
2018-12-27T03:59:39.622Z,16.00
2018-12-27T04:00:39.623Z,20.00
2018-12-27T04:01:39.678Z,20.00
2018-12-27T04:02:39.588Z,20.00
2018-12-27T04:03:39.877Z,20.00
2018-12-27T04:04:39.573Z,20.00
2018-12-27T04:05:39.556Z,20.00
2018-12-27T04:06:39.544Z,20.00
2018-12-27T04:07:39.610Z,20.00
2018-12-27T04:08:39.525Z,20.00
2018-12-27T04:09:39.535Z,20.00
2018-12-27T04:10:39.790Z,20.00
2018-12-27T04:11:39.492Z,20.00
2018-12-27T04:12:39.482Z,20.00
2018-12-27T04:13:39.927Z,20.00
2018-12-27T04:14:39.460Z,20.00
2018-12-27T04:15:39.452Z,20.00
2018-12-27T04:16:39.439Z,20.00
2018-12-27T04:17:39.720Z,20.00
2018-12-27T04:18:39.418Z,20.00
2018-12-27T04:19:39.520Z,20.00
2018-12-27T04:20:39.396Z,20.00
2018-12-27T04:21:39.386Z,20.00
2018-12-27T04:22:39.382Z,20.00
2018-12-27T04:23:39.365Z,20.00
2018-12-27T04:24:39.638Z,20.00
2018-12-27T04:25:39.417Z,20.00
2018-12-27T04:26:39.346Z,20.00
2018-12-27T04:27:39.320Z,20.00
2018-12-27T04:28:39.321Z,20.00
2018-12-27T04:29:39.300Z,20.00
2018-12-27T04:30:39.290Z,20.00
2018-12-27T04:31:39.376Z,20.00
2018-12-27T04:32:39.268Z,20.00
2018-12-27T04:33:39.256Z,20.00
2018-12-27T04:34:39.243Z,20.00
2018-12-27T04:35:39.240Z,20.00
2018-12-27T04:36:39.230Z,20.00
2018-12-27T04:37:39.575Z,20.00
2018-12-27T04:38:39.202Z,20.00
2018-12-27T04:39:39.190Z,20.00
2018-12-27T04:40:39.179Z,20.00
2018-12-27T04:41:39.169Z,20.00
2018-12-27T04:42:39.160Z,20.00
2018-12-27T04:43:39.215Z,20.00
2018-12-27T04:44:39.143Z,20.00
2018-12-27T04:45:39.125Z,20.00
2018-12-27T04:46:39.114Z,20.00
2018-12-27T04:47:39.110Z,20.00
2018-12-27T04:48:39.092Z,20.00
2018-12-27T04:49:39.476Z,20.00
2018-12-27T04:50:39.072Z,20.00
2018-12-27T04:51:39.066Z,20.00
2018-12-27T04:52:39.058Z,20.00
2018-12-27T04:53:39.041Z,20.00
2018-12-27T04:54:39.027Z,20.00
2018-12-27T04:55:39.086Z,20.00
2018-12-27T04:56:39.009Z,20.00
2018-12-27T04:57:38.999Z,20.00
2018-12-27T04:58:38.986Z,20.00
2018-12-27T04:59:38.974Z,20.00
2018-12-27T05:00:38.964Z,20.00
2018-12-27T05:01:39.020Z,20.00
2018-12-27T05:02:38.946Z,20.00
2018-12-27T05:03:38.940Z,20.00
2018-12-27T05:04:38.922Z,20.00
2018-12-27T05:05:38.909Z,20.00
2018-12-27T05:06:38.898Z,20.00
2018-12-27T05:07:39.608Z,20.00
2018-12-27T05:08:38.877Z,20.00
2018-12-27T05:09:38.866Z,20.00
2018-12-27T05:10:38.855Z,20.00
2018-12-27T05:11:38.847Z,20.00
2018-12-27T05:12:38.836Z,20.00
2018-12-27T05:13:38.893Z,20.00
2018-12-27T05:14:39.186Z,20.00
2018-12-27T05:15:38.807Z,20.00
2018-12-27T05:16:38.792Z,20.00
2018-12-27T05:17:38.782Z,20.00
2018-12-27T05:18:38.770Z,20.00
2018-12-27T05:19:38.832Z,20.00
2018-12-27T05:20:38.752Z,20.00
2018-12-27T05:21:39.025Z,20.00
2018-12-27T05:22:38.727Z,20.00
2018-12-27T05:23:38.716Z,20.00
2018-12-27T05:24:38.711Z,0.00
2018-12-27T05:25:38.810Z,20.00
2018-12-27T05:26:38.739Z,20.00
2018-12-27T05:27:38.673Z,20.00
2018-12-27T05:28:39.024Z,20.00
2018-12-27T05:29:38.652Z,20.00
2018-12-27T05:30:38.642Z,20.00
2018-12-27T05:31:38.762Z,20.00
2018-12-27T05:32:38.621Z,20.00
2018-12-27T05:33:38.614Z,20.00
2018-12-27T05:34:38.599Z,20.00
2018-12-27T05:35:38.895Z,20.00
2018-12-27T05:36:38.579Z,20.00
2018-12-27T05:37:38.684Z,20.00
2018-12-27T05:38:38.559Z,20.00
2018-12-27T05:39:38.548Z,20.00
2018-12-27T05:40:38.538Z,20.00
2018-12-27T05:41:38.578Z,20.00
2018-12-27T05:42:38.813Z,20.00
2018-12-27T05:43:38.599Z,20.00
2018-12-27T05:44:38.498Z,20.00
2018-12-27T05:45:38.488Z,20.00
2018-12-27T05:46:38.477Z,20.00
2018-12-27T05:47:38.467Z,20.00
2018-12-27T05:48:38.456Z,20.00
2018-12-27T05:49:40.956Z,20.00
2018-12-27T05:50:38.436Z,20.00
2018-12-27T05:51:38.428Z,20.00
2018-12-27T05:52:38.416Z,20.00
2018-12-27T05:53:38.406Z,20.00
2018-12-27T05:54:38.399Z,20.00
2018-12-27T05:55:38.459Z,20.00
2018-12-27T05:56:38.691Z,20.00
2018-12-27T05:57:38.366Z,20.00
2018-12-27T05:58:38.476Z,20.00
2018-12-27T05:59:38.494Z,20.00
2018-12-27T06:00:38.334Z,20.00
2018-12-27T06:01:38.409Z,20.00
2018-12-27T06:02:38.357Z,20.00
2018-12-27T06:03:38.780Z,20.00
2018-12-27T06:04:38.293Z,20.00
2018-12-27T06:05:38.286Z,20.00
2018-12-27T06:06:38.280Z,20.00
2018-12-27T06:07:38.336Z,20.00
2018-12-27T06:08:38.263Z,20.00
2018-12-27T06:09:38.246Z,20.00
2018-12-27T06:10:38.737Z,20.00
2018-12-27T06:11:38.416Z,20.00
2018-12-27T06:12:38.391Z,20.00
2018-12-27T06:13:38.642Z,20.00
2018-12-27T06:14:38.196Z,20.00
2018-12-27T06:15:38.181Z,20.00
2018-12-27T06:16:38.183Z,20.00
2018-12-27T06:17:38.526Z,20.00
2018-12-27T06:18:38.153Z,20.00
2018-12-27T06:19:38.375Z,20.00
2018-12-27T06:20:38.132Z,20.00
2018-12-27T06:21:38.137Z,20.00
2018-12-27T06:22:38.112Z,20.00
2018-12-27T06:23:38.100Z,20.00
2018-12-27T06:24:38.550Z,20.00
2018-12-27T06:25:38.299Z,20.00
2018-12-27T06:26:38.070Z,20.00
2018-12-27T06:27:38.100Z,20.00
2018-12-27T06:28:38.051Z,20.00
2018-12-27T06:29:38.774Z,20.00
2018-12-27T06:30:38.027Z,20.00
2018-12-27T06:31:38.148Z,20.00
2018-12-27T06:32:38.008Z,20.00
2018-12-27T06:33:38.130Z,20.00
2018-12-27T06:34:41.423Z,20.00
2018-12-27T06:35:37.982Z,20.00
2018-12-27T06:36:37.966Z,20.00
2018-12-27T06:37:40.431Z,20.00
2018-12-27T06:38:37.946Z,20.00
2018-12-27T06:39:37.934Z,20.00
2018-12-27T06:40:37.928Z,20.00
2018-12-27T06:41:37.914Z,20.00
2018-12-27T06:42:37.908Z,20.00
2018-12-27T06:43:37.968Z,20.00
2018-12-27T06:44:37.884Z,20.00
2018-12-27T06:45:37.883Z,20.00
2018-12-27T06:46:37.863Z,20.00
2018-12-27T06:47:37.857Z,20.00
2018-12-27T06:48:37.842Z,20.00
2018-12-27T06:49:38.355Z,24.00
2018-12-27T06:50:37.822Z,24.00
2018-12-27T06:51:37.811Z,24.00
2018-12-27T06:52:37.948Z,24.00
2018-12-27T06:53:37.802Z,24.00
2018-12-27T06:54:37.809Z,24.00
2018-12-27T06:55:38.342Z,24.00
2018-12-27T06:56:37.760Z,20.00
2018-12-27T06:57:37.852Z,20.00
2018-12-27T06:58:38.092Z,24.00
2018-12-27T06:59:37.751Z,24.00
2018-12-27T07:00:37.719Z,28.00
2018-12-27T07:01:38.331Z,24.00
2018-12-27T07:02:37.928Z,28.00
2018-12-27T07:03:37.793Z,28.00
2018-12-27T07:04:37.719Z,28.00
2018-12-27T07:05:37.723Z,28.00
2018-12-27T07:06:37.780Z,28.00
2018-12-27T07:07:37.811Z,32.00
2018-12-27T07:08:37.945Z,32.00
2018-12-27T07:09:37.630Z,24.00
2018-12-27T07:10:37.618Z,24.00
2018-12-27T07:11:37.607Z,28.00
2018-12-27T07:12:37.659Z,28.00
2018-12-27T07:13:37.877Z,32.00
2018-12-27T07:14:37.579Z,36.00
2018-12-27T07:15:37.923Z,40.00
2018-12-27T07:16:37.700Z,44.00
2018-12-27T07:17:37.628Z,52.00
2018-12-27T07:18:37.535Z,56.00
2018-12-27T07:19:37.600Z,64.00
2018-12-27T07:20:37.516Z,68.00
2018-12-27T07:21:37.508Z,76.00
2018-12-27T07:22:37.937Z,80.00
2018-12-27T07:23:37.485Z,92.00
2018-12-27T07:24:37.473Z,96.00
2018-12-27T07:25:37.536Z,108.00
2018-12-27T07:26:37.472Z,116.00
2018-12-27T07:27:37.443Z,128.00
2018-12-27T07:28:37.551Z,140.00
2018-12-27T07:29:37.751Z,152.00
2018-12-27T07:30:37.413Z,164.00
2018-12-27T07:31:37.494Z,176.00
2018-12-27T07:32:37.393Z,180.00
2018-12-27T07:33:37.383Z,196.00
2018-12-27T07:34:37.465Z,212.00
2018-12-27T07:35:37.361Z,228.00
2018-12-27T07:36:37.770Z,248.00
2018-12-27T07:37:37.461Z,276.00
2018-12-27T07:38:37.335Z,296.00
2018-12-27T07:39:37.332Z,324.00
2018-12-27T07:40:37.403Z,348.00
2018-12-27T07:41:37.335Z,380.00
2018-12-27T07:42:37.290Z,408.00
2018-12-27T07:43:37.825Z,436.00
2018-12-27T07:44:37.270Z,468.00
2018-12-27T07:45:37.371Z,500.00
2018-12-27T07:46:37.248Z,532.00
2018-12-27T07:47:37.249Z,568.00
2018-12-27T07:48:37.229Z,604.00
2018-12-27T07:49:37.649Z,644.00
2018-12-27T07:50:37.607Z,676.00
2018-12-27T07:51:37.196Z,708.00
2018-12-27T07:52:37.332Z,736.00
2018-12-27T07:53:37.219Z,764.00
2018-12-27T07:54:37.363Z,792.00
2018-12-27T07:55:37.438Z,828.00
2018-12-27T07:56:37.304Z,856.00
2018-12-27T07:57:37.735Z,888.00
2018-12-27T07:58:37.279Z,920.00
2018-12-27T07:59:37.140Z,956.00
2018-12-27T08:00:37.362Z,1000.00
2018-12-27T08:01:39.318Z,1040.00
2018-12-27T08:02:37.930Z,1076.00
2018-12-27T08:03:37.073Z,1108.00
2018-12-27T08:04:37.473Z,1136.00
2018-12-27T08:05:37.755Z,1160.00
2018-12-27T08:06:37.117Z,1180.00
2018-12-27T08:07:37.518Z,1192.00
2018-12-27T08:08:37.213Z,1204.00
2018-12-27T08:09:37.010Z,1224.00
2018-12-27T08:10:37.005Z,1244.00
2018-12-27T08:11:37.455Z,1260.00
2018-12-27T08:12:36.979Z,1276.00
2018-12-27T08:13:39.009Z,1284.00
2018-12-27T08:14:37.972Z,1296.00
2018-12-27T08:15:37.040Z,1320.00
2018-12-27T08:16:37.024Z,1348.00
2018-12-27T08:17:37.029Z,1384.00
2018-12-27T08:18:37.262Z,1412.00
2018-12-27T08:19:37.039Z,1432.00
2018-12-27T08:20:36.893Z,1428.00
2018-12-27T08:21:36.883Z,1464.00
2018-12-27T08:22:36.986Z,1476.00
2018-12-27T08:23:37.713Z,1484.00
2018-12-27T08:24:36.855Z,1492.00
2018-12-27T08:25:37.315Z,1512.00
2018-12-27T08:26:36.833Z,1532.00
2018-12-27T08:27:36.966Z,1552.00
2018-12-27T08:28:36.809Z,1572.00
2018-12-27T08:29:36.798Z,1600.00
2018-12-27T08:30:36.788Z,1624.00
2018-12-27T08:31:37.111Z,1648.00
2018-12-27T08:32:36.771Z,1668.00
2018-12-27T08:33:36.783Z,1696.00
2018-12-27T08:34:37.202Z,1720.00
2018-12-27T08:35:36.740Z,1764.00
2018-12-27T08:36:36.726Z,1816.00
2018-12-27T08:37:36.834Z,1872.00
2018-12-27T08:38:37.086Z,1924.00
2018-12-27T08:39:36.720Z,1960.00
2018-12-27T08:40:36.784Z,1988.00
2018-12-27T08:41:36.721Z,2008.00
2018-12-27T08:42:36.713Z,2052.00
2018-12-27T08:43:37.462Z,2100.00
2018-12-27T08:44:36.682Z,2140.00
2018-12-27T08:45:36.665Z,2196.00
2018-12-27T08:46:36.636Z,2244.00
2018-12-27T08:47:36.747Z,2288.00
2018-12-27T08:48:36.657Z,2316.00
2018-12-27T08:49:36.723Z,2340.00
2018-12-27T08:50:36.684Z,2364.00
2018-12-27T08:51:37.355Z,2392.00
2018-12-27T08:52:36.801Z,2424.00
2018-12-27T08:53:36.599Z,2464.00
2018-12-27T08:54:36.748Z,2496.00
2018-12-27T08:55:37.899Z,2520.00
2018-12-27T08:56:36.626Z,2548.00
2018-12-27T08:57:36.527Z,2596.00
2018-12-27T08:58:36.617Z,2628.00
2018-12-27T08:59:36.487Z,2660.00
2018-12-27T09:00:36.657Z,2692.00
2018-12-27T09:01:36.745Z,2708.00
2018-12-27T09:02:36.453Z,2740.00
2018-12-27T09:03:36.919Z,2776.00
2018-12-27T09:04:36.461Z,2828.00
2018-12-27T09:05:36.621Z,2904.00
2018-12-27T09:06:36.444Z,3012.00
2018-12-27T09:07:36.604Z,3136.00
2018-12-27T09:08:36.407Z,3188.00
2018-12-27T09:09:36.412Z,3240.00
2018-12-27T09:10:36.369Z,3280.00
2018-12-27T09:11:36.359Z,3384.00
2018-12-27T09:12:36.347Z,3340.00
2018-12-27T09:13:36.515Z,3348.00
2018-12-27T09:14:36.328Z,3336.00
2018-12-27T09:15:36.837Z,3412.00
2018-12-27T09:16:36.483Z,3440.00
2018-12-27T09:17:36.528Z,3472.00
2018-12-27T09:18:36.568Z,3476.00
2018-12-27T09:19:37.131Z,3512.00
2018-12-27T09:20:36.357Z,3520.00
2018-12-27T09:21:36.296Z,3532.00
2018-12-27T09:22:36.812Z,3548.00
2018-12-27T09:23:36.262Z,3584.00
2018-12-27T09:24:36.450Z,3620.00
2018-12-27T09:25:36.605Z,3636.00
2018-12-27T09:26:36.456Z,3652.00
2018-12-27T09:27:36.320Z,3680.00
2018-12-27T09:28:38.101Z,3704.00
2018-12-27T09:35:00.163Z,3712.00
2018-12-27T09:36:00.649Z,3712.00
2018-12-27T09:36:59.864Z,3728.00
2018-12-27T09:37:59.802Z,3704.00
2018-12-27T09:38:59.737Z,3724.00
2018-12-27T09:40:00.179Z,3776.00
2018-12-27T09:41:00.002Z,3768.00
2018-12-27T09:41:59.714Z,3728.00
2018-12-27T09:42:59.720Z,3748.00
2018-12-27T09:43:59.637Z,3744.00
2018-12-27T09:44:59.829Z,3696.00
2018-12-27T09:45:59.652Z,3664.00
2018-12-27T09:47:00.554Z,3628.00
2018-12-27T09:47:59.709Z,3640.00
2018-12-27T09:48:59.635Z,3636.00
2018-12-27T09:49:59.691Z,3584.00
2018-12-27T09:50:59.797Z,3540.00
2018-12-27T09:52:02.224Z,3508.00
2018-12-27T09:52:59.578Z,3588.00
2018-12-27T09:53:59.606Z,3576.00
2018-12-27T09:54:59.503Z,3568.00
2018-12-27T09:55:59.547Z,3548.00
2018-12-27T09:56:59.494Z,3524.00
2018-12-27T09:57:59.759Z,3472.00
2018-12-27T09:58:59.500Z,3420.00
2018-12-27T09:59:59.479Z,3424.00
2018-12-27T10:00:59.440Z,3484.00
2018-12-27T10:01:59.633Z,3504.00
2018-12-27T10:02:59.516Z,3596.00
2018-12-27T10:03:59.568Z,3696.00
2018-12-27T10:04:59.559Z,3804.00
2018-12-27T10:06:00.079Z,3836.00
2018-12-27T10:06:59.679Z,3800.00
2018-12-27T10:07:59.672Z,3852.00
2018-12-27T10:08:59.382Z,3856.00
2018-12-27T10:09:59.796Z,3812.00
2018-12-27T10:10:59.408Z,3864.00
2018-12-27T10:11:59.400Z,4000.00
2018-12-27T10:12:59.465Z,4116.00
2018-12-27T10:13:59.558Z,4196.00
2018-12-27T10:14:59.326Z,4244.00
2018-12-27T10:15:59.573Z,4284.00
2018-12-27T10:16:59.869Z,4372.00
2018-12-27T10:17:59.447Z,4428.00
2018-12-27T10:18:59.358Z,4324.00
2018-12-27T10:19:59.282Z,4464.00
2018-12-27T10:20:59.413Z,4712.00
2018-12-27T10:21:59.256Z,4832.00
2018-12-27T10:22:59.605Z,4844.00
2018-12-27T10:23:59.378Z,4904.00
2018-12-27T10:24:59.458Z,4964.00
2018-12-27T10:25:59.455Z,5196.00
2018-12-27T10:26:59.172Z,5104.00
2018-12-27T10:27:59.461Z,5264.00
2018-12-27T10:28:59.605Z,5116.00
2018-12-27T10:29:59.778Z,5048.00
2018-12-27T10:30:59.914Z,5136.00
2018-12-27T10:31:59.183Z,4936.00
2018-12-27T10:32:59.277Z,4836.00
2018-12-27T10:33:59.436Z,5024.00
2018-12-27T10:34:59.366Z,4892.00
2018-12-27T10:35:59.388Z,4764.00
2018-12-27T10:36:59.823Z,4408.00
2018-12-27T10:37:59.158Z,4300.00
2018-12-27T10:38:59.262Z,4196.00
2018-12-27T10:39:59.199Z,4168.00
2018-12-27T10:41:00.241Z,4136.00
2018-12-27T10:41:59.102Z,4256.00
2018-12-27T10:42:59.047Z,4428.00
2018-12-27T10:43:58.993Z,4280.00
2018-12-27T10:44:59.694Z,4464.00
2018-12-27T10:45:58.988Z,4580.00
2018-12-27T10:46:59.503Z,4536.00
2018-12-27T10:47:59.159Z,4524.00
2018-12-27T10:48:59.068Z,4628.00
2018-12-27T10:49:59.689Z,4752.00
2018-12-27T10:50:59.112Z,4844.00
2018-12-27T10:51:58.993Z,4972.00
2018-12-27T10:52:59.598Z,5180.00
2018-12-27T10:53:59.019Z,5216.00
2018-12-27T10:54:59.059Z,5316.00
2018-12-27T10:55:58.965Z,5736.00
2018-12-27T10:56:59.242Z,5704.00
2018-12-27T10:57:59.631Z,5436.00
2018-12-27T10:58:59.257Z,5184.00
2018-12-27T10:59:58.906Z,4868.00
2018-12-27T11:00:58.979Z,4908.00
2018-12-27T11:01:59.143Z,5212.00
2018-12-27T11:02:59.643Z,5044.00
2018-12-27T11:03:59.417Z,5260.00
2018-12-27T11:04:59.380Z,5672.00
2018-12-27T11:05:58.867Z,5668.00
2018-12-27T11:06:58.891Z,5792.00
2018-12-27T11:07:58.879Z,5952.00
2018-12-27T11:08:58.868Z,5844.00
2018-12-27T11:09:59.640Z,5644.00
2018-12-27T11:10:59.524Z,5624.00
2018-12-27T11:11:58.807Z,5460.00
2018-12-27T11:12:58.705Z,5440.00
2018-12-27T11:13:58.712Z,5540.00
2018-12-27T11:14:58.861Z,5556.00
2018-12-27T11:15:58.669Z,5736.00
2018-12-27T11:16:59.069Z,5892.00
2018-12-27T11:17:58.663Z,5944.00
2018-12-27T11:18:58.669Z,5968.00
2018-12-27T11:19:59.130Z,6152.00
2018-12-27T11:20:58.771Z,6288.00
2018-12-27T11:21:58.711Z,6768.00
2018-12-27T11:22:58.952Z,7032.00
2018-12-27T11:23:58.669Z,7084.00
2018-12-27T11:24:58.726Z,7444.00
2018-12-27T11:25:58.603Z,7424.00
2018-12-27T11:26:58.805Z,7320.00
2018-12-27T11:27:58.571Z,7704.00
2018-12-27T11:28:58.958Z,7616.00
2018-12-27T11:29:59.065Z,7836.00
2018-12-27T11:30:58.744Z,7864.00
2018-12-27T11:31:58.549Z,8060.00
2018-12-27T11:32:58.607Z,8172.00
2018-12-27T11:33:58.604Z,8256.00
2018-12-27T11:34:58.732Z,8340.00
2018-12-27T11:35:58.621Z,8316.00
2018-12-27T11:36:58.508Z,8580.00
2018-12-27T11:37:58.728Z,8132.00
2018-12-27T11:38:58.447Z,7744.00
2018-12-27T11:39:58.567Z,7412.00
2018-12-27T11:40:59.039Z,7040.00
2018-12-27T11:41:58.956Z,6528.00
2018-12-27T11:42:58.477Z,5860.00
2018-12-27T11:43:58.540Z,5300.00
2018-12-27T11:44:58.802Z,4868.00
2018-12-27T11:45:58.410Z,4504.00
2018-12-27T11:46:58.796Z,4212.00
2018-12-27T11:47:58.427Z,3956.00
2018-12-27T11:48:58.785Z,3740.00
2018-12-27T11:49:58.547Z,3504.00
2018-12-27T11:50:58.397Z,3332.00
2018-12-27T11:51:58.500Z,3244.00
2018-12-27T11:52:58.452Z,3144.00
2018-12-27T11:53:58.334Z,3116.00
2018-12-27T11:55:02.963Z,3136.00
2018-12-27T11:56:27.805Z,3108.00
2018-12-27T11:56:58.727Z,3156.00
2018-12-27T11:57:58.309Z,3164.00
2018-12-27T11:58:58.621Z,3172.00
2018-12-27T11:59:58.192Z,3208.00
2018-12-27T12:00:58.318Z,3284.00
2018-12-27T12:01:58.810Z,3300.00
2018-12-27T12:02:58.928Z,3472.00
2018-12-27T12:03:58.774Z,3508.00
2018-12-27T12:04:58.614Z,3540.00
2018-12-27T12:06:03.211Z,4164.00
2018-12-27T12:06:59.159Z,3996.00
2018-12-27T12:07:58.762Z,4844.00
2018-12-27T12:08:58.510Z,3956.00
2018-12-27T12:09:58.359Z,3572.00
2018-12-27T12:10:59.141Z,3408.00
2018-12-27T12:11:58.163Z,3404.00
2018-12-27T12:12:58.194Z,3232.00
2018-12-27T12:13:58.347Z,3208.00
2018-12-27T12:14:58.391Z,4644.00
2018-12-27T12:15:58.189Z,9176.00
2018-12-27T12:16:58.538Z,12560.00
2018-12-27T12:17:58.072Z,16800.00
2018-12-27T12:18:58.084Z,18464.00
2018-12-27T12:19:58.006Z,14208.00
2018-12-27T12:20:58.337Z,16928.00
2018-12-27T12:21:58.379Z,15588.00
2018-12-27T12:23:00.085Z,16096.00
2018-12-27T12:23:57.955Z,13364.00
2018-12-27T12:24:58.108Z,6288.00
2018-12-27T12:25:58.295Z,6044.00
2018-12-27T12:26:57.901Z,6044.00
2018-12-27T12:27:58.183Z,6032.00
2018-12-27T12:28:59.081Z,5944.00
2018-12-27T12:29:57.899Z,5816.00
2018-12-27T12:30:58.135Z,5684.00
2018-12-27T12:31:58.022Z,5516.00
2018-12-27T12:32:58.001Z,5324.00
2018-12-27T12:33:57.857Z,5264.00
2018-12-27T12:34:58.975Z,5272.00
2018-12-27T12:35:58.289Z,5276.00
2018-12-27T12:36:58.021Z,5232.00
2018-12-27T12:37:58.666Z,5204.00
2018-12-27T12:38:58.242Z,5200.00
2018-12-27T12:39:58.119Z,5332.00